sensor_id;sensor_type;location;lat;lon;timestamp;P1;durP1;ratioP1;P2;durP2;ratioP2
15198;SDS011;7700;48.654;9.070;2023-08-01T00:01:23;4.40;;;3.47;;
15198;SDS011;7700;48.654;9.070;2023-08-01T00:03:49;5.88;;;3.83;;
15198;SDS011;7700;48.654;9.070;2023-08-01T00:06:15;4.88;;;3.65;;
15198;SDS011;7700;48.654;9.070;2023-08-01T00:08:41;5.25;;;4.00;;
15198;SDS011;7700;48.654;9.070;2023-08-01T00:11:10;4.75;;;3.50;;
15198;SDS011;7700;48.654;9.070;2023-08-01T00:13:39;3.88;;;3.47;;
15198;SDS011;7700;48.654;9.070;2023-08-01T00:16:05;5.28;;;3.97;;
15198;SDS011;7700;48.654;9.070;2023-08-01T00:18:31;4.38;;;3.33;;
15198;SDS011;7700;48.654;9.070;2023-08-01T00:20:57;4.95;;;3.90;;
15198;SDS011;7700;48.654;9.070;2023-08-01T00:23:24;4.78;;;3.67;;
15198;SDS011;7700;48.654;9.070;2023-08-01T00:25:50;4.82;;;3.50;;
15198;SDS011;7700;48.654;9.070;2023-08-01T00:28:17;4.40;;;3.42;;
15198;SDS011;7700;48.654;9.070;2023-08-01T00:30:43;3.80;;;3.50;;
15198;SDS011;7700;48.654;9.070;2023-08-01T00:33:09;4.68;;;3.45;;
15198;SDS011;7700;48.654;9.070;2023-08-01T00:35:35;4.85;;;3.58;;
15198;SDS011;7700;48.654;9.070;2023-08-01T00:38:01;4.25;;;3.85;;
15198;SDS011;7700;48.654;9.070;2023-08-01T00:40:33;4.25;;;3.60;;
15198;SDS011;7700;48.654;9.070;2023-08-01T00:42:59;4.22;;;3.35;;
15198;SDS011;7700;48.654;9.070;2023-08-01T00:45:26;3.60;;;3.03;;
15198;SDS011;7700;48.654;9.070;2023-08-01T00:47:53;4.72;;;3.60;;
15198;SDS011;7700;48.654;9.070;2023-08-01T00:50:19;4.13;;;3.67;;
15198;SDS011;7700;48.654;9.070;2023-08-01T00:52:48;4.90;;;3.20;;
15198;SDS011;7700;48.654;9.070;2023-08-01T00:55:16;4.22;;;3.40;;
15198;SDS011;7700;48.654;9.070;2023-08-01T00:57:42;4.13;;;3.70;;
15198;SDS011;7700;48.654;9.070;2023-08-01T01:00:08;3.47;;;3.17;;
15198;SDS011;7700;48.654;9.070;2023-08-01T01:02:34;4.95;;;3.30;;
15198;SDS011;7700;48.654;9.070;2023-08-01T01:05:01;3.88;;;3.50;;
15198;SDS011;7700;48.654;9.070;2023-08-01T01:07:27;4.93;;;3.50;;
15198;SDS011;7700;48.654;9.070;2023-08-01T01:09:54;4.47;;;3.38;;
15198;SDS011;7700;48.654;9.070;2023-08-01T01:12:20;5.38;;;3.75;;
15198;SDS011;7700;48.654;9.070;2023-08-01T01:14:46;5.13;;;3.85;;
15198;SDS011;7700;48.654;9.070;2023-08-01T01:17:12;3.88;;;3.20;;
15198;SDS011;7700;48.654;9.070;2023-08-01T01:19:38;5.00;;;3.78;;
15198;SDS011;7700;48.654;9.070;2023-08-01T01:22:04;4.88;;;3.53;;
15198;SDS011;7700;48.654;9.070;2023-08-01T01:24:31;4.97;;;3.72;;
15198;SDS011;7700;48.654;9.070;2023-08-01T01:26:57;4.30;;;3.58;;
15198;SDS011;7700;48.654;9.070;2023-08-01T01:29:28;4.28;;;3.88;;
15198;SDS011;7700;48.654;9.070;2023-08-01T01:31:54;5.20;;;3.60;;
15198;SDS011;7700;48.654;9.070;2023-08-01T01:34:21;6.68;;;3.80;;
15198;SDS011;7700;48.654;9.070;2023-08-01T01:36:47;4.38;;;3.28;;
15198;SDS011;7700;48.654;9.070;2023-08-01T01:39:13;6.15;;;3.30;;
15198;SDS011;7700;48.654;9.070;2023-08-01T01:41:39;5.35;;;3.63;;
15198;SDS011;7700;48.654;9.070;2023-08-01T01:44:05;4.80;;;3.40;;
15198;SDS011;7700;48.654;9.070;2023-08-01T01:46:31;4.57;;;3.55;;
15198;SDS011;7700;48.654;9.070;2023-08-01T01:48:57;5.43;;;4.18;;
15198;SDS011;7700;48.654;9.070;2023-08-01T01:51:25;5.13;;;3.83;;
15198;SDS011;7700;48.654;9.070;2023-08-01T01:53:51;4.72;;;3.75;;
15198;SDS011;7700;48.654;9.070;2023-08-01T01:56:17;3.55;;;3.20;;
15198;SDS011;7700;48.654;9.070;2023-08-01T01:58:43;5.22;;;3.55;;
15198;SDS011;7700;48.654;9.070;2023-08-01T02:01:09;4.35;;;3.70;;
15198;SDS011;7700;48.654;9.070;2023-08-01T02:03:35;4.65;;;3.70;;
15198;SDS011;7700;48.654;9.070;2023-08-01T02:06:01;4.68;;;3.63;;
15198;SDS011;7700;48.654;9.070;2023-08-01T02:08:30;3.92;;;3.33;;
15198;SDS011;7700;48.654;9.070;2023-08-01T02:13:33;4.13;;;3.72;;
15198;SDS011;7700;48.654;9.070;2023-08-01T02:15:59;6.45;;;3.35;;
15198;SDS011;7700;48.654;9.070;2023-08-01T02:18:25;4.57;;;3.05;;
15198;SDS011;7700;48.654;9.070;2023-08-01T02:20:51;4.60;;;3.30;;
15198;SDS011;7700;48.654;9.070;2023-08-01T02:23:17;5.32;;;3.53;;
15198;SDS011;7700;48.654;9.070;2023-08-01T02:25:43;6.25;;;3.90;;
15198;SDS011;7700;48.654;9.070;2023-08-01T02:28:09;4.05;;;3.67;;
15198;SDS011;7700;48.654;9.070;2023-08-01T02:30:35;3.88;;;3.58;;
15198;SDS011;7700;48.654;9.070;2023-08-01T02:33:01;4.78;;;3.58;;
15198;SDS011;7700;48.654;9.070;2023-08-01T02:35:28;5.03;;;3.17;;
15198;SDS011;7700;48.654;9.070;2023-08-01T02:37:54;5.57;;;3.72;;
15198;SDS011;7700;48.654;9.070;2023-08-01T02:40:20;4.38;;;3.97;;
15198;SDS011;7700;48.654;9.070;2023-08-01T02:42:46;5.00;;;3.55;;
15198;SDS011;7700;48.654;9.070;2023-08-01T02:45:12;3.97;;;3.47;;
15198;SDS011;7700;48.654;9.070;2023-08-01T02:47:38;4.00;;;3.60;;
15198;SDS011;7700;48.654;9.070;2023-08-01T02:50:04;4.47;;;3.45;;
15198;SDS011;7700;48.654;9.070;2023-08-01T02:52:30;4.78;;;3.70;;
15198;SDS011;7700;48.654;9.070;2023-08-01T02:54:56;4.88;;;4.13;;
15198;SDS011;7700;48.654;9.070;2023-08-01T02:57:23;4.47;;;3.17;;
15198;SDS011;7700;48.654;9.070;2023-08-01T02:59:49;4.03;;;3.05;;
15198;SDS011;7700;48.654;9.070;2023-08-01T03:02:15;4.65;;;3.38;;
15198;SDS011;7700;48.654;9.070;2023-08-01T03:04:41;4.15;;;3.75;;
15198;SDS011;7700;48.654;9.070;2023-08-01T03:07:07;5.43;;;3.67;;
15198;SDS011;7700;48.654;9.070;2023-08-01T03:09:33;5.95;;;3.92;;
15198;SDS011;7700;48.654;9.070;2023-08-01T03:11:59;5.32;;;3.17;;
15198;SDS011;7700;48.654;9.070;2023-08-01T03:14:25;4.82;;;3.33;;
15198;SDS011;7700;48.654;9.070;2023-08-01T03:16:50;3.78;;;3.10;;
15198;SDS011;7700;48.654;9.070;2023-08-01T03:19:16;4.20;;;3.53;;
15198;SDS011;7700;48.654;9.070;2023-08-01T03:21:43;4.63;;;3.08;;
15198;SDS011;7700;48.654;9.070;2023-08-01T03:24:09;3.53;;;3.15;;
15198;SDS011;7700;48.654;9.070;2023-08-01T03:26:35;4.95;;;3.13;;
15198;SDS011;7700;48.654;9.070;2023-08-01T03:29:02;4.85;;;3.20;;
15198;SDS011;7700;48.654;9.070;2023-08-01T03:31:30;4.53;;;3.42;;
15198;SDS011;7700;48.654;9.070;2023-08-01T03:33:56;5.55;;;3.42;;
15198;SDS011;7700;48.654;9.070;2023-08-01T03:36:23;4.10;;;3.10;;
15198;SDS011;7700;48.654;9.070;2023-08-01T03:38:49;5.18;;;3.40;;
15198;SDS011;7700;48.654;9.070;2023-08-01T03:41:15;5.18;;;3.35;;
15198;SDS011;7700;48.654;9.070;2023-08-01T03:43:41;5.20;;;3.25;;
15198;SDS011;7700;48.654;9.070;2023-08-01T03:46:07;3.72;;;3.08;;
15198;SDS011;7700;48.654;9.070;2023-08-01T03:48:33;3.42;;;3.05;;
15198;SDS011;7700;48.654;9.070;2023-08-01T03:50:59;4.53;;;3.55;;
15198;SDS011;7700;48.654;9.070;2023-08-01T03:53:25;4.25;;;3.75;;
15198;SDS011;7700;48.654;9.070;2023-08-01T03:55:51;5.43;;;3.50;;
15198;SDS011;7700;48.654;9.070;2023-08-01T03:58:17;4.75;;;3.65;;
15198;SDS011;7700;48.654;9.070;2023-08-01T04:00:43;3.72;;;3.25;;
15198;SDS011;7700;48.654;9.070;2023-08-01T04:03:09;3.45;;;3.08;;
15198;SDS011;7700;48.654;9.070;2023-08-01T04:05:35;3.60;;;3.30;;
15198;SDS011;7700;48.654;9.070;2023-08-01T04:08:01;5.60;;;4.10;;
15198;SDS011;7700;48.654;9.070;2023-08-01T04:10:27;5.55;;;3.25;;
15198;SDS011;7700;48.654;9.070;2023-08-01T04:12:53;4.75;;;3.50;;
15198;SDS011;7700;48.654;9.070;2023-08-01T04:15:19;4.40;;;3.00;;
15198;SDS011;7700;48.654;9.070;2023-08-01T04:17:45;3.70;;;3.20;;
15198;SDS011;7700;48.654;9.070;2023-08-01T04:20:10;4.07;;;3.03;;
15198;SDS011;7700;48.654;9.070;2023-08-01T04:22:37;5.07;;;3.50;;
15198;SDS011;7700;48.654;9.070;2023-08-01T04:25:03;4.57;;;3.15;;
15198;SDS011;7700;48.654;9.070;2023-08-01T04:27:29;4.45;;;2.90;;
15198;SDS011;7700;48.654;9.070;2023-08-01T04:29:55;6.40;;;3.65;;
15198;SDS011;7700;48.654;9.070;2023-08-01T04:32:21;4.20;;;3.25;;
15198;SDS011;7700;48.654;9.070;2023-08-01T04:34:47;7.63;;;4.25;;
15198;SDS011;7700;48.654;9.070;2023-08-01T04:37:13;33.38;;;6.07;;
15198;SDS011;7700;48.654;9.070;2023-08-01T04:39:39;3.60;;;2.80;;
15198;SDS011;7700;48.654;9.070;2023-08-01T04:42:05;7.50;;;3.75;;
15198;SDS011;7700;48.654;9.070;2023-08-01T04:44:31;5.05;;;3.70;;
15198;SDS011;7700;48.654;9.070;2023-08-01T04:46:57;4.15;;;3.08;;
15198;SDS011;7700;48.654;9.070;2023-08-01T04:49:23;4.88;;;3.38;;
15198;SDS011;7700;48.654;9.070;2023-08-01T04:51:50;4.78;;;3.03;;
15198;SDS011;7700;48.654;9.070;2023-08-01T04:54:17;3.75;;;3.13;;
15198;SDS011;7700;48.654;9.070;2023-08-01T04:56:43;3.38;;;2.97;;
15198;SDS011;7700;48.654;9.070;2023-08-01T04:59:08;4.90;;;3.25;;
15198;SDS011;7700;48.654;9.070;2023-08-01T05:01:34;5.43;;;3.67;;
15198;SDS011;7700;48.654;9.070;2023-08-01T05:04:00;3.97;;;3.58;;
15198;SDS011;7700;48.654;9.070;2023-08-01T05:06:26;7.05;;;3.60;;
15198;SDS011;7700;48.654;9.070;2023-08-01T05:08:55;3.45;;;3.15;;
15198;SDS011;7700;48.654;9.070;2023-08-01T05:11:21;3.47;;;3.17;;
15198;SDS011;7700;48.654;9.070;2023-08-01T05:13:48;4.22;;;3.70;;
15198;SDS011;7700;48.654;9.070;2023-08-01T05:16:14;5.00;;;3.45;;
15198;SDS011;7700;48.654;9.070;2023-08-01T05:18:40;32.70;;;7.00;;
15198;SDS011;7700;48.654;9.070;2023-08-01T05:21:05;7.53;;;5.05;;
15198;SDS011;7700;48.654;9.070;2023-08-01T05:23:31;4.78;;;3.80;;
15198;SDS011;7700;48.654;9.070;2023-08-01T05:25:57;5.30;;;3.88;;
15198;SDS011;7700;48.654;9.070;2023-08-01T05:28:23;4.32;;;3.90;;
15198;SDS011;7700;48.654;9.070;2023-08-01T05:30:49;4.80;;;3.65;;
15198;SDS011;7700;48.654;9.070;2023-08-01T05:33:15;5.05;;;3.78;;
15198;SDS011;7700;48.654;9.070;2023-08-01T05:35:41;5.50;;;3.90;;
15198;SDS011;7700;48.654;9.070;2023-08-01T05:38:07;4.28;;;3.80;;
15198;SDS011;7700;48.654;9.070;2023-08-01T05:40:33;4.28;;;3.75;;
15198;SDS011;7700;48.654;9.070;2023-08-01T05:42:59;4.80;;;3.92;;
15198;SDS011;7700;48.654;9.070;2023-08-01T05:45:26;6.07;;;3.45;;
15198;SDS011;7700;48.654;9.070;2023-08-01T05:47:52;5.03;;;3.47;;
15198;SDS011;7700;48.654;9.070;2023-08-01T05:50:18;5.50;;;3.33;;
15198;SDS011;7700;48.654;9.070;2023-08-01T05:52:44;9.60;;;4.15;;
15198;SDS011;7700;48.654;9.070;2023-08-01T05:55:10;5.32;;;3.58;;
15198;SDS011;7700;48.654;9.070;2023-08-01T05:57:36;3.72;;;3.25;;
15198;SDS011;7700;48.654;9.070;2023-08-01T06:00:02;6.18;;;3.60;;
15198;SDS011;7700;48.654;9.070;2023-08-01T06:02:28;3.80;;;3.40;;
15198;SDS011;7700;48.654;9.070;2023-08-01T06:04:54;3.70;;;3.30;;
15198;SDS011;7700;48.654;9.070;2023-08-01T06:07:20;5.22;;;3.38;;
15198;SDS011;7700;48.654;9.070;2023-08-01T06:09:48;4.18;;;3.38;;
15198;SDS011;7700;48.654;9.070;2023-08-01T06:12:15;3.40;;;3.10;;
15198;SDS011;7700;48.654;9.070;2023-08-01T06:14:41;4.85;;;3.22;;
15198;SDS011;7700;48.654;9.070;2023-08-01T06:17:07;3.75;;;3.10;;
15198;SDS011;7700;48.654;9.070;2023-08-01T06:19:33;4.22;;;3.30;;
15198;SDS011;7700;48.654;9.070;2023-08-01T06:21:59;5.07;;;3.55;;
15198;SDS011;7700;48.654;9.070;2023-08-01T06:24:25;5.45;;;3.60;;
15198;SDS011;7700;48.654;9.070;2023-08-01T06:26:51;3.38;;;2.72;;
15198;SDS011;7700;48.654;9.070;2023-08-01T06:29:17;4.10;;;3.35;;
15198;SDS011;7700;48.654;9.070;2023-08-01T06:34:21;4.30;;;3.58;;
15198;SDS011;7700;48.654;9.070;2023-08-01T06:36:49;3.63;;;3.10;;
15198;SDS011;7700;48.654;9.070;2023-08-01T06:39:15;3.70;;;3.28;;
15198;SDS011;7700;48.654;9.070;2023-08-01T06:41:41;3.55;;;3.25;;
15198;SDS011;7700;48.654;9.070;2023-08-01T06:44:07;4.90;;;3.28;;
15198;SDS011;7700;48.654;9.070;2023-08-01T06:46:33;3.80;;;3.50;;
15198;SDS011;7700;48.654;9.070;2023-08-01T06:48:59;4.15;;;3.30;;
15198;SDS011;7700;48.654;9.070;2023-08-01T06:51:25;4.07;;;3.65;;
15198;SDS011;7700;48.654;9.070;2023-08-01T06:53:51;4.50;;;3.40;;
15198;SDS011;7700;48.654;9.070;2023-08-01T06:56:17;5.68;;;3.65;;
15198;SDS011;7700;48.654;9.070;2023-08-01T06:58:43;4.80;;;3.35;;
15198;SDS011;7700;48.654;9.070;2023-08-01T07:01:09;3.78;;;3.45;;
15198;SDS011;7700;48.654;9.070;2023-08-01T07:03:35;4.07;;;3.63;;
15198;SDS011;7700;48.654;9.070;2023-08-01T07:06:01;4.28;;;3.80;;
15198;SDS011;7700;48.654;9.070;2023-08-01T07:08:27;4.32;;;3.80;;
15198;SDS011;7700;48.654;9.070;2023-08-01T07:10:53;4.88;;;3.90;;
15198;SDS011;7700;48.654;9.070;2023-08-01T07:13:19;5.20;;;3.47;;
15198;SDS011;7700;48.654;9.070;2023-08-01T07:15:45;24.23;;;5.47;;
15198;SDS011;7700;48.654;9.070;2023-08-01T07:18:11;5.75;;;4.03;;
15198;SDS011;7700;48.654;9.070;2023-08-01T07:20:37;5.40;;;3.80;;
15198;SDS011;7700;48.654;9.070;2023-08-01T07:23:03;4.85;;;4.10;;
15198;SDS011;7700;48.654;9.070;2023-08-01T07:25:29;31.08;;;9.80;;
15198;SDS011;7700;48.654;9.070;2023-08-01T07:27:54;5.25;;;4.72;;
15198;SDS011;7700;48.654;9.070;2023-08-01T07:30:20;4.50;;;4.10;;
15198;SDS011;7700;48.654;9.070;2023-08-01T07:32:46;5.32;;;4.28;;
15198;SDS011;7700;48.654;9.070;2023-08-01T07:35:13;4.55;;;3.97;;
15198;SDS011;7700;48.654;9.070;2023-08-01T07:37:39;4.50;;;3.67;;
15198;SDS011;7700;48.654;9.070;2023-08-01T07:40:05;4.13;;;3.60;;
15198;SDS011;7700;48.654;9.070;2023-08-01T07:42:31;4.15;;;3.17;;
15198;SDS011;7700;48.654;9.070;2023-08-01T07:44:57;3.95;;;3.10;;
15198;SDS011;7700;48.654;9.070;2023-08-01T07:47:23;32.40;;;5.68;;
15198;SDS011;7700;48.654;9.070;2023-08-01T07:49:49;4.05;;;3.45;;
15198;SDS011;7700;48.654;9.070;2023-08-01T07:52:15;3.95;;;3.05;;
15198;SDS011;7700;48.654;9.070;2023-08-01T07:54:41;4.40;;;2.95;;
15198;SDS011;7700;48.654;9.070;2023-08-01T07:57:07;4.90;;;3.17;;
15198;SDS011;7700;48.654;9.070;2023-08-01T07:59:33;4.80;;;3.13;;
15198;SDS011;7700;48.654;9.070;2023-08-01T08:01:59;3.95;;;3.38;;
15198;SDS011;7700;48.654;9.070;2023-08-01T08:04:25;3.70;;;3.20;;
15198;SDS011;7700;48.654;9.070;2023-08-01T08:06:51;4.57;;;3.35;;
15198;SDS011;7700;48.654;9.070;2023-08-01T08:09:19;5.38;;;3.45;;
15198;SDS011;7700;48.654;9.070;2023-08-01T08:11:47;4.18;;;3.72;;
15198;SDS011;7700;48.654;9.070;2023-08-01T08:14:13;5.97;;;3.13;;
15198;SDS011;7700;48.654;9.070;2023-08-01T08:16:40;3.75;;;3.20;;
15198;SDS011;7700;48.654;9.070;2023-08-01T08:19:06;4.05;;;3.28;;
15198;SDS011;7700;48.654;9.070;2023-08-01T08:21:32;4.13;;;3.72;;
15198;SDS011;7700;48.654;9.070;2023-08-01T08:23:58;4.47;;;3.50;;
15198;SDS011;7700;48.654;9.070;2023-08-01T08:26:25;4.85;;;3.60;;
15198;SDS011;7700;48.654;9.070;2023-08-01T08:28:51;4.00;;;3.60;;
15198;SDS011;7700;48.654;9.070;2023-08-01T08:31:17;4.88;;;3.42;;
15198;SDS011;7700;48.654;9.070;2023-08-01T08:33:43;7.15;;;3.58;;
15198;SDS011;7700;48.654;9.070;2023-08-01T08:36:09;3.72;;;3.35;;
15198;SDS011;7700;48.654;9.070;2023-08-01T08:38:35;4.10;;;3.22;;
15198;SDS011;7700;48.654;9.070;2023-08-01T08:43:27;3.88;;;3.47;;
15198;SDS011;7700;48.654;9.070;2023-08-01T08:45:53;4.25;;;3.85;;
15198;SDS011;7700;48.654;9.070;2023-08-01T08:48:20;3.78;;;3.38;;
15198;SDS011;7700;48.654;9.070;2023-08-01T08:50:46;4.22;;;3.58;;
15198;SDS011;7700;48.654;9.070;2023-08-01T08:53:13;3.50;;;3.20;;
15198;SDS011;7700;48.654;9.070;2023-08-01T08:55:40;4.13;;;3.00;;
15198;SDS011;7700;48.654;9.070;2023-08-01T08:58:06;3.00;;;2.70;;
15198;SDS011;7700;48.654;9.070;2023-08-01T09:00:34;2.60;;;2.40;;
15198;SDS011;7700;48.654;9.070;2023-08-01T09:03:01;5.45;;;2.63;;
15198;SDS011;7700;48.654;9.070;2023-08-01T09:05:27;4.78;;;2.83;;
15198;SDS011;7700;48.654;9.070;2023-08-01T09:07:55;2.88;;;2.60;;
15198;SDS011;7700;48.654;9.070;2023-08-01T09:10:22;2.33;;;2.13;;
15198;SDS011;7700;48.654;9.070;2023-08-01T09:12:49;4.70;;;2.58;;
15198;SDS011;7700;48.654;9.070;2023-08-01T09:15:14;2.10;;;1.85;;
15198;SDS011;7700;48.654;9.070;2023-08-01T09:17:51;1.98;;;1.83;;
15198;SDS011;7700;48.654;9.070;2023-08-01T09:20:17;1.67;;;1.58;;
15198;SDS011;7700;48.654;9.070;2023-08-01T09:22:43;2.08;;;1.67;;
15198;SDS011;7700;48.654;9.070;2023-08-01T09:25:10;2.95;;;1.88;;
15198;SDS011;7700;48.654;9.070;2023-08-01T09:27:36;1.98;;;1.75;;
15198;SDS011;7700;48.654;9.070;2023-08-01T09:30:06;1.75;;;1.50;;
15198;SDS011;7700;48.654;9.070;2023-08-01T09:32:32;2.88;;;1.52;;
15198;SDS011;7700;48.654;9.070;2023-08-01T09:34:59;1.80;;;1.70;;
15198;SDS011;7700;48.654;9.070;2023-08-01T09:37:25;2.25;;;1.65;;
15198;SDS011;7700;48.654;9.070;2023-08-01T09:39:54;2.10;;;1.38;;
15198;SDS011;7700;48.654;9.070;2023-08-01T09:42:20;1.60;;;1.48;;
15198;SDS011;7700;48.654;9.070;2023-08-01T09:44:46;1.42;;;1.25;;
15198;SDS011;7700;48.654;9.070;2023-08-01T09:47:12;2.22;;;1.30;;
15198;SDS011;7700;48.654;9.070;2023-08-01T09:49:47;2.03;;;1.50;;
15198;SDS011;7700;48.654;9.070;2023-08-01T09:52:13;1.63;;;1.52;;
15198;SDS011;7700;48.654;9.070;2023-08-01T09:54:39;2.20;;;0.95;;
15198;SDS011;7700;48.654;9.070;2023-08-01T09:57:05;1.05;;;0.85;;
15198;SDS011;7700;48.654;9.070;2023-08-01T09:59:32;1.25;;;0.90;;
15198;SDS011;7700;48.654;9.070;2023-08-01T10:03:32;0.90;;;0.90;;
15198;SDS011;7700;48.654;9.070;2023-08-01T10:05:58;1.13;;;1.00;;
15198;SDS011;7700;48.654;9.070;2023-08-01T10:08:24;0.63;;;0.60;;
15198;SDS011;7700;48.654;9.070;2023-08-01T10:10:50;0.75;;;0.70;;
15198;SDS011;7700;48.654;9.070;2023-08-01T10:13:17;1.40;;;0.70;;
15198;SDS011;7700;48.654;9.070;2023-08-01T10:15:46;0.75;;;0.70;;
15198;SDS011;7700;48.654;9.070;2023-08-01T10:18:12;1.65;;;0.50;;
15198;SDS011;7700;48.654;9.070;2023-08-01T10:20:38;0.98;;;0.47;;
15198;SDS011;7700;48.654;9.070;2023-08-01T10:23:04;0.50;;;0.50;;
15198;SDS011;7700;48.654;9.070;2023-08-01T10:25:31;0.57;;;0.57;;
15198;SDS011;7700;48.654;9.070;2023-08-01T10:28:01;1.50;;;0.60;;
15198;SDS011;7700;48.654;9.070;2023-08-01T10:30:28;0.75;;;0.40;;
15198;SDS011;7700;48.654;9.070;2023-08-01T10:32:55;0.43;;;0.43;;
15198;SDS011;7700;48.654;9.070;2023-08-01T10:35:43;0.90;;;0.50;;
15198;SDS011;7700;48.654;9.070;2023-08-01T10:38:09;0.93;;;0.60;;
15198;SDS011;7700;48.654;9.070;2023-08-01T10:40:42;0.73;;;0.50;;
15198;SDS011;7700;48.654;9.070;2023-08-01T10:45:46;0.73;;;0.50;;
15198;SDS011;7700;48.654;9.070;2023-08-01T10:48:12;0.50;;;0.50;;
15198;SDS011;7700;48.654;9.070;2023-08-01T10:50:39;1.10;;;0.43;;
15198;SDS011;7700;48.654;9.070;2023-08-01T10:53:08;0.98;;;0.60;;
15198;SDS011;7700;48.654;9.070;2023-08-01T10:55:38;2.35;;;0.57;;
15198;SDS011;7700;48.654;9.070;2023-08-01T10:58:04;0.52;;;0.50;;
15198;SDS011;7700;48.654;9.070;2023-08-01T11:00:30;0.77;;;0.50;;
15198;SDS011;7700;48.654;9.070;2023-08-01T11:02:56;0.57;;;0.50;;
15198;SDS011;7700;48.654;9.070;2023-08-01T11:05:22;0.50;;;0.50;;
15198;SDS011;7700;48.654;9.070;2023-08-01T11:07:56;0.93;;;0.70;;
15198;SDS011;7700;48.654;9.070;2023-08-01T11:10:24;0.70;;;0.65;;
15198;SDS011;7700;48.654;9.070;2023-08-01T11:12:50;0.90;;;0.73;;
15198;SDS011;7700;48.654;9.070;2023-08-01T11:15:16;0.52;;;0.50;;
15198;SDS011;7700;48.654;9.070;2023-08-01T11:17:43;0.80;;;0.80;;
15198;SDS011;7700;48.654;9.070;2023-08-01T11:20:12;1.15;;;0.90;;
15198;SDS011;7700;48.654;9.070;2023-08-01T11:22:38;1.38;;;1.02;;
15198;SDS011;7700;48.654;9.070;2023-08-01T11:25:14;0.88;;;0.80;;
15198;SDS011;7700;48.654;9.070;2023-08-01T11:27:40;1.02;;;0.77;;
15198;SDS011;7700;48.654;9.070;2023-08-01T11:30:06;0.80;;;0.80;;
15198;SDS011;7700;48.654;9.070;2023-08-01T11:32:36;0.68;;;0.68;;
15198;SDS011;7700;48.654;9.070;2023-08-01T11:35:02;1.42;;;0.70;;
15198;SDS011;7700;48.654;9.070;2023-08-01T11:37:28;0.68;;;0.68;;
15198;SDS011;7700;48.654;9.070;2023-08-01T11:39:55;1.45;;;0.80;;
15198;SDS011;7700;48.654;9.070;2023-08-01T11:42:21;1.15;;;0.88;;
15198;SDS011;7700;48.654;9.070;2023-08-01T11:44:47;0.65;;;0.65;;
15198;SDS011;7700;48.654;9.070;2023-08-01T11:47:13;1.90;;;0.80;;
15198;SDS011;7700;48.654;9.070;2023-08-01T11:49:44;38.25;;;4.38;;
15198;SDS011;7700;48.654;9.070;2023-08-01T11:52:14;2.88;;;0.98;;
15198;SDS011;7700;48.654;9.070;2023-08-01T11:54:47;1.85;;;0.70;;
15198;SDS011;7700;48.654;9.070;2023-08-01T11:57:13;1.77;;;0.80;;
15198;SDS011;7700;48.654;9.070;2023-08-01T11:59:45;1.25;;;0.88;;
15198;SDS011;7700;48.654;9.070;2023-08-01T12:02:19;1.52;;;0.90;;
15198;SDS011;7700;48.654;9.070;2023-08-01T12:04:45;0.95;;;0.80;;
15198;SDS011;7700;48.654;9.070;2023-08-01T12:07:12;15.80;;;1.75;;
15198;SDS011;7700;48.654;9.070;2023-08-01T12:09:39;1.20;;;1.10;;
15198;SDS011;7700;48.654;9.070;2023-08-01T12:12:05;1.35;;;1.20;;
15198;SDS011;7700;48.654;9.070;2023-08-01T12:14:31;1.85;;;1.02;;
15198;SDS011;7700;48.654;9.070;2023-08-01T12:16:57;1.90;;;1.00;;
15198;SDS011;7700;48.654;9.070;2023-08-01T12:19:23;1.92;;;0.80;;
15198;SDS011;7700;48.654;9.070;2023-08-01T12:21:49;1.17;;;1.08;;
15198;SDS011;7700;48.654;9.070;2023-08-01T12:24:16;1.08;;;1.00;;
15198;SDS011;7700;48.654;9.070;2023-08-01T12:26:42;1.50;;;1.10;;
15198;SDS011;7700;48.654;9.070;2023-08-01T12:29:08;1.58;;;0.77;;
15198;SDS011;7700;48.654;9.070;2023-08-01T12:31:35;3.28;;;1.00;;
15198;SDS011;7700;48.654;9.070;2023-08-01T12:34:01;1.23;;;1.00;;
15198;SDS011;7700;48.654;9.070;2023-08-01T12:36:27;1.35;;;0.90;;
15198;SDS011;7700;48.654;9.070;2023-08-01T12:38:53;2.25;;;0.90;;
15198;SDS011;7700;48.654;9.070;2023-08-01T12:41:19;2.08;;;1.00;;
15198;SDS011;7700;48.654;9.070;2023-08-01T12:43:45;1.08;;;0.98;;
15198;SDS011;7700;48.654;9.070;2023-08-01T12:46:11;2.45;;;1.10;;
15198;SDS011;7700;48.654;9.070;2023-08-01T12:48:37;1.00;;;0.98;;
15198;SDS011;7700;48.654;9.070;2023-08-01T12:51:03;1.00;;;1.00;;
15198;SDS011;7700;48.654;9.070;2023-08-01T12:53:29;1.92;;;0.98;;
15198;SDS011;7700;48.654;9.070;2023-08-01T12:55:55;1.35;;;0.95;;
15198;SDS011;7700;48.654;9.070;2023-08-01T12:58:21;2.63;;;1.20;;
15198;SDS011;7700;48.654;9.070;2023-08-01T13:00:48;1.85;;;1.10;;
15198;SDS011;7700;48.654;9.070;2023-08-01T13:03:14;1.10;;;0.95;;
15198;SDS011;7700;48.654;9.070;2023-08-01T13:05:41;2.10;;;1.00;;
15198;SDS011;7700;48.654;9.070;2023-08-01T13:08:07;1.15;;;1.00;;
15198;SDS011;7700;48.654;9.070;2023-08-01T13:10:34;2.38;;;0.90;;
15198;SDS011;7700;48.654;9.070;2023-08-01T13:13:00;2.33;;;1.30;;
15198;SDS011;7700;48.654;9.070;2023-08-01T13:15:26;1.27;;;1.00;;
15198;SDS011;7700;48.654;9.070;2023-08-01T13:17:53;1.75;;;0.90;;
15198;SDS011;7700;48.654;9.070;2023-08-01T13:20:19;1.75;;;1.15;;
15198;SDS011;7700;48.654;9.070;2023-08-01T13:22:45;21.58;;;2.38;;
15198;SDS011;7700;48.654;9.070;2023-08-01T13:25:12;16.58;;;2.35;;
15198;SDS011;7700;48.654;9.070;2023-08-01T13:27:39;1.35;;;1.10;;
15198;SDS011;7700;48.654;9.070;2023-08-01T13:30:05;1.27;;;1.15;;
15198;SDS011;7700;48.654;9.070;2023-08-01T13:32:31;2.05;;;1.05;;
15198;SDS011;7700;48.654;9.070;2023-08-01T13:34:57;2.30;;;1.23;;
15198;SDS011;7700;48.654;9.070;2023-08-01T13:37:23;1.17;;;1.00;;
15198;SDS011;7700;48.654;9.070;2023-08-01T13:39:49;2.03;;;1.05;;
15198;SDS011;7700;48.654;9.070;2023-08-01T13:42:15;23.27;;;2.35;;
15198;SDS011;7700;48.654;9.070;2023-08-01T13:44:41;0.98;;;0.95;;
15198;SDS011;7700;48.654;9.070;2023-08-01T13:47:07;3.40;;;1.15;;
15198;SDS011;7700;48.654;9.070;2023-08-01T13:49:33;1.27;;;1.17;;
15198;SDS011;7700;48.654;9.070;2023-08-01T13:51:59;2.58;;;1.10;;
15198;SDS011;7700;48.654;9.070;2023-08-01T13:54:25;21.77;;;2.45;;
15198;SDS011;7700;48.654;9.070;2023-08-01T13:56:51;1.70;;;0.90;;
15198;SDS011;7700;48.654;9.070;2023-08-01T13:59:18;1.13;;;1.10;;
15198;SDS011;7700;48.654;9.070;2023-08-01T14:01:45;2.38;;;1.10;;
15198;SDS011;7700;48.654;9.070;2023-08-01T14:04:11;1.17;;;1.00;;
15198;SDS011;7700;48.654;9.070;2023-08-01T14:06:41;1.48;;;0.98;;
15198;SDS011;7700;48.654;9.070;2023-08-01T14:09:11;2.55;;;1.10;;
15198;SDS011;7700;48.654;9.070;2023-08-01T14:11:37;4.28;;;1.00;;
15198;SDS011;7700;48.654;9.070;2023-08-01T14:14:03;1.30;;;1.02;;
15198;SDS011;7700;48.654;9.070;2023-08-01T14:16:29;2.63;;;1.10;;
15198;SDS011;7700;48.654;9.070;2023-08-01T14:18:56;0.98;;;0.98;;
15198;SDS011;7700;48.654;9.070;2023-08-01T14:21:22;1.85;;;1.10;;
15198;SDS011;7700;48.654;9.070;2023-08-01T14:23:48;2.00;;;1.20;;
15198;SDS011;7700;48.654;9.070;2023-08-01T14:26:14;1.48;;;1.13;;
15198;SDS011;7700;48.654;9.070;2023-08-01T14:28:40;1.30;;;1.20;;
15198;SDS011;7700;48.654;9.070;2023-08-01T14:31:06;1.90;;;1.17;;
15198;SDS011;7700;48.654;9.070;2023-08-01T14:33:32;1.73;;;1.20;;
15198;SDS011;7700;48.654;9.070;2023-08-01T14:35:58;1.40;;;1.17;;
15198;SDS011;7700;48.654;9.070;2023-08-01T14:38:24;1.63;;;1.25;;
15198;SDS011;7700;48.654;9.070;2023-08-01T14:40:51;1.27;;;1.17;;
15198;SDS011;7700;48.654;9.070;2023-08-01T14:43:17;2.40;;;1.02;;
15198;SDS011;7700;48.654;9.070;2023-08-01T14:45:43;1.70;;;1.25;;
15198;SDS011;7700;48.654;9.070;2023-08-01T14:48:09;1.63;;;0.90;;
15198;SDS011;7700;48.654;9.070;2023-08-01T14:50:37;1.15;;;1.00;;
15198;SDS011;7700;48.654;9.070;2023-08-01T14:53:03;2.47;;;1.20;;
15198;SDS011;7700;48.654;9.070;2023-08-01T14:55:31;1.98;;;1.35;;
15198;SDS011;7700;48.654;9.070;2023-08-01T14:57:57;1.15;;;1.05;;
15198;SDS011;7700;48.654;9.070;2023-08-01T15:00:23;0.85;;;0.80;;
15198;SDS011;7700;48.654;9.070;2023-08-01T15:02:50;1.58;;;0.90;;
15198;SDS011;7700;48.654;9.070;2023-08-01T15:05:16;1.63;;;0.98;;
15198;SDS011;7700;48.654;9.070;2023-08-01T15:07:42;1.17;;;1.08;;